sensor_id;sensor_type;location;lat;lon;timestamp;pressure;altitude;pressure_sealevel;temperature;humidity
51781;BME280;37844;57.126;24.288;2022-10-16T00:00:37;101356.47;;;13.58;100.00
51781;BME280;37844;57.126;24.288;2022-10-16T00:03:04;101357.28;;;13.53;100.00
51781;BME280;37844;57.126;24.288;2022-10-16T00:05:30;101359.00;;;13.54;100.00
51781;BME280;37844;57.126;24.288;2022-10-16T00:07:55;101358.97;;;13.52;100.00
51781;BME280;37844;57.126;24.288;2022-10-16T00:10:21;101356.41;;;13.54;100.00
51781;BME280;37844;57.126;24.288;2022-10-16T00:12:47;101362.47;;;13.56;100.00
51781;BME280;37844;57.126;24.288;2022-10-16T00:15:13;101362.50;;;13.57;100.00
51781;BME280;37844;57.126;24.288;2022-10-16T00:17:38;101365.09;;;13.59;100.00
51781;BME280;37844;57.126;24.288;2022-10-16T00:20:04;101358.22;;;13.60;100.00
51781;BME280;37844;57.126;24.288;2022-10-16T00:22:30;101371.97;;;13.55;100.00
51781;BME280;37844;57.126;24.288;2022-10-16T00:24:55;101358.09;;;13.52;100.00
51781;BME280;37844;57.126;24.288;2022-10-16T00:27:21;101360.75;;;13.55;100.00
51781;BME280;37844;57.126;24.288;2022-10-16T00:29:50;101356.44;;;13.57;100.00
51781;BME280;37844;57.126;24.288;2022-10-16T00:32:16;101357.31;;;13.57;100.00
51781;BME280;37844;57.126;24.288;2022-10-16T00:34:42;101359.84;;;13.54;100.00
51781;BME280;37844;57.126;24.288;2022-10-16T00:37:07;101372.84;;;13.56;100.00
51781;BME280;37844;57.126;24.288;2022-10-16T00:39:33;101351.25;;;13.57;100.00
51781;BME280;37844;57.126;24.288;2022-10-16T00:41:58;101349.50;;;13.54;100.00
51781;BME280;37844;57.126;24.288;2022-10-16T00:47:13;101356.41;;;13.54;100.00
51781;BME280;37844;57.126;24.288;2022-10-16T00:49:40;101358.13;;;13.53;100.00
51781;BME280;37844;57.126;24.288;2022-10-16T00:52:06;101353.75;;;13.49;100.00
51781;BME280;37844;57.126;24.288;2022-10-16T00:54:32;101355.53;;;13.53;100.00
51781;BME280;37844;57.126;24.288;2022-10-16T00:57:04;101352.97;;;13.55;100.00
51781;BME280;37844;57.126;24.288;2022-10-16T00:59:35;101347.78;;;13.53;100.00
51781;BME280;37844;57.126;24.288;2022-10-16T01:02:03;101353.78;;;13.52;100.00
51781;BME280;37844;57.126;24.288;2022-10-16T01:04:35;101355.53;;;13.50;100.00
51781;BME280;37844;57.126;24.288;2022-10-16T01:07:17;101352.03;;;13.48;100.00
51781;BME280;37844;57.126;24.288;2022-10-16T01:10:02;101345.16;;;13.50;100.00
51781;BME280;37844;57.126;24.288;2022-10-16T01:12:41;101353.78;;;13.51;100.00
51781;BME280;37844;57.126;24.288;2022-10-16T01:15:26;101347.69;;;13.46;100.00
51781;BME280;37844;57.126;24.288;2022-10-16T01:20:34;101348.53;;;13.45;100.00
51781;BME280;37844;57.126;24.288;2022-10-16T01:29:13;101351.97;;;13.42;100.00
51781;BME280;37844;57.126;24.288;2022-10-16T01:31:43;101344.22;;;13.45;100.00
51781;BME280;37844;57.126;24.288;2022-10-16T01:34:21;101347.53;;;13.32;100.00
51781;BME280;37844;57.126;24.288;2022-10-16T01:37:02;101333.75;;;13.34;100.00
51781;BME280;37844;57.126;24.288;2022-10-16T01:39:32;101345.91;;;13.40;100.00
51781;BME280;37844;57.126;24.288;2022-10-16T01:42:06;101343.34;;;13.42;100.00
51781;BME280;37844;57.126;24.288;2022-10-16T01:44:34;101343.38;;;13.46;100.00
51781;BME280;37844;57.126;24.288;2022-10-16T01:47:02;101344.22;;;13.45;100.00
51781;BME280;37844;57.126;24.288;2022-10-16T01:49:31;101333.00;;;13.43;100.00
51781;BME280;37844;57.126;24.288;2022-10-16T01:52:00;101337.31;;;13.44;100.00
51781;BME280;37844;57.126;24.288;2022-10-16T01:54:29;101339.91;;;13.44;100.00
51781;BME280;37844;57.126;24.288;2022-10-16T01:56:56;101334.69;;;13.40;100.00
51781;BME280;37844;57.126;24.288;2022-10-16T01:59:25;101343.34;;;13.45;100.00
51781;BME280;37844;57.126;24.288;2022-10-16T02:02:01;101339.09;;;13.48;100.00
51781;BME280;37844;57.126;24.288;2022-10-16T02:04:39;101340.81;;;13.49;100.00
51781;BME280;37844;57.126;24.288;2022-10-16T02:07:06;101341.69;;;13.48;100.00
51781;BME280;37844;57.126;24.288;2022-10-16T02:09:33;101349.44;;;13.47;100.00
51781;BME280;37844;57.126;24.288;2022-10-16T02:12:03;101339.91;;;13.44;100.00
51781;BME280;37844;57.126;24.288;2022-10-16T02:14:32;101334.75;;;13.46;100.00
51781;BME280;37844;57.126;24.288;2022-10-16T02:16:58;101338.19;;;13.46;100.00
51781;BME280;37844;57.126;24.288;2022-10-16T02:19:23;101340.81;;;13.48;100.00
51781;BME280;37844;57.126;24.288;2022-10-16T02:21:54;101334.81;;;13.50;100.00
51781;BME280;37844;57.126;24.288;2022-10-16T02:24:32;101335.63;;;13.48;100.00
51781;BME280;37844;57.126;24.288;2022-10-16T02:27:06;101333.91;;;13.50;100.00
51781;BME280;37844;57.126;24.288;2022-10-16T02:29:40;101339.97;;;13.49;100.00
51781;BME280;37844;57.126;24.288;2022-10-16T02:32:10;101331.28;;;13.44;100.00
51781;BME280;37844;57.126;24.288;2022-10-16T02:34:36;101322.59;;;13.40;100.00
51781;BME280;37844;57.126;24.288;2022-10-16T02:37:04;101312.28;;;13.45;100.00
51781;BME280;37844;57.126;24.288;2022-10-16T02:39:31;101326.09;;;13.45;100.00
51781;BME280;37844;57.126;24.288;2022-10-16T02:41:56;101326.94;;;13.44;100.00
51781;BME280;37844;57.126;24.288;2022-10-16T02:44:22;101320.91;;;13.45;100.00
51781;BME280;37844;57.126;24.288;2022-10-16T02:46:47;101324.38;;;13.47;100.00
51781;BME280;37844;57.126;24.288;2022-10-16T02:49:13;101322.69;;;13.49;100.00
51781;BME280;37844;57.126;24.288;2022-10-16T02:51:38;101323.56;;;13.48;100.00
51781;BME280;37844;57.126;24.288;2022-10-16T02:54:04;101329.56;;;13.47;100.00
51781;BME280;37844;57.126;24.288;2022-10-16T02:56:29;101326.97;;;13.46;100.00
51781;BME280;37844;57.126;24.288;2022-10-16T02:58:56;101337.34;;;13.46;100.00
51781;BME280;37844;57.126;24.288;2022-10-16T03:01:22;101337.28;;;13.43;100.00
51781;BME280;37844;57.126;24.288;2022-10-16T03:03:47;101323.44;;;13.39;100.00
51781;BME280;37844;57.126;24.288;2022-10-16T03:06:13;101322.63;;;13.42;100.00
51781;BME280;37844;57.126;24.288;2022-10-16T03:08:38;101323.47;;;13.42;100.00
51781;BME280;37844;57.126;24.288;2022-10-16T03:11:04;101319.16;;;13.43;100.00
51781;BME280;37844;57.126;24.288;2022-10-16T03:13:30;101334.69;;;13.41;100.00
51781;BME280;37844;57.126;24.288;2022-10-16T03:15:55;101330.41;;;13.45;100.00
51781;BME280;37844;57.126;24.288;2022-10-16T03:18:21;101326.06;;;13.41;100.00
51781;BME280;37844;57.126;24.288;2022-10-16T03:20:46;101332.09;;;13.41;100.00
51781;BME280;37844;57.126;24.288;2022-10-16T03:23:13;101342.47;;;13.41;100.00
51781;BME280;37844;57.126;24.288;2022-10-16T03:25:39;101332.13;;;13.44;100.00
51781;BME280;37844;57.126;24.288;2022-10-16T03:28:04;101344.22;;;13.44;100.00
51781;BME280;37844;57.126;24.288;2022-10-16T03:30:30;101333.84;;;13.42;100.00
51781;BME280;37844;57.126;24.288;2022-10-16T03:32:55;101341.63;;;13.45;100.00
51781;BME280;37844;57.126;24.288;2022-10-16T03:35:21;101339.94;;;13.46;100.00
51781;BME280;37844;57.126;24.288;2022-10-16T03:37:47;101346.84;;;13.50;100.00
51781;BME280;37844;57.126;24.288;2022-10-16T03:40:13;101344.28;;;13.51;100.00
51781;BME280;37844;57.126;24.288;2022-10-16T03:42:38;101343.44;;;13.52;100.00
51781;BME280;37844;57.126;24.288;2022-10-16T03:45:05;101344.31;;;13.53;100.00
51781;BME280;37844;57.126;24.288;2022-10-16T03:47:30;101351.25;;;13.57;100.00
51781;BME280;37844;57.126;24.288;2022-10-16T03:49:58;101343.50;;;13.58;100.00
51781;BME280;37844;57.126;24.288;2022-10-16T03:52:23;101341.78;;;13.59;100.00
51781;BME280;37844;57.126;24.288;2022-10-16T03:54:49;101343.53;;;13.60;100.00
51781;BME280;37844;57.126;24.288;2022-10-16T03:57:14;101341.81;;;13.61;100.00
51781;BME280;37844;57.126;24.288;2022-10-16T03:59:40;101340.06;;;13.61;100.00
51781;BME280;37844;57.126;24.288;2022-10-16T04:02:05;101347.00;;;13.62;100.00
51781;BME280;37844;57.126;24.288;2022-10-16T04:04:31;101358.22;;;13.64;100.00
51781;BME280;37844;57.126;24.288;2022-10-16T04:06:56;101347.88;;;13.63;100.00
51781;BME280;37844;57.126;24.288;2022-10-16T04:09:22;101349.56;;;13.61;100.00
51781;BME280;37844;57.126;24.288;2022-10-16T04:11:47;101345.22;;;13.58;100.00
51781;BME280;37844;57.126;24.288;2022-10-16T04:14:12;101353.91;;;13.60;100.00
51781;BME280;37844;57.126;24.288;2022-10-16T04:16:38;101348.72;;;13.60;100.00
51781;BME280;37844;57.126;24.288;2022-10-16T04:19:03;101350.44;;;13.61;100.00
51781;BME280;37844;57.126;24.288;2022-10-16T04:21:29;101340.06;;;13.61;100.00
51781;BME280;37844;57.126;24.288;2022-10-16T04:23:54;101351.34;;;13.65;100.00
51781;BME280;37844;57.126;24.288;2022-10-16T04:26:20;101347.91;;;13.69;100.00
51781;BME280;37844;57.126;24.288;2022-10-16T04:28:45;101352.25;;;13.67;100.00
51781;BME280;37844;57.126;24.288;2022-10-16T04:31:11;101349.66;;;13.68;100.00
51781;BME280;37844;57.126;24.288;2022-10-16T04:33:36;101353.06;;;13.63;100.00
51781;BME280;37844;57.126;24.288;2022-10-16T04:36:02;101347.00;;;13.64;100.00
51781;BME280;37844;57.126;24.288;2022-10-16T04:38:29;101353.06;;;13.66;100.00
51781;BME280;37844;57.126;24.288;2022-10-16T04:40:54;101335.00;;;13.72;100.00
51781;BME280;37844;57.126;24.288;2022-10-16T04:43:20;101339.31;;;13.71;100.00
51781;BME280;37844;57.126;24.288;2022-10-16T04:45:46;101339.31;;;13.71;100.00
51781;BME280;37844;57.126;24.288;2022-10-16T04:48:11;101334.13;;;13.70;100.00
51781;BME280;37844;57.126;24.288;2022-10-16T04:50:37;101344.47;;;13.71;100.00
51781;BME280;37844;57.126;24.288;2022-10-16T04:53:02;101342.75;;;13.70;100.00
51781;BME280;37844;57.126;24.288;2022-10-16T04:55:28;101356.56;;;13.71;100.00
51781;BME280;37844;57.126;24.288;2022-10-16T04:57:54;101366.97;;;13.72;100.00
51781;BME280;37844;57.126;24.288;2022-10-16T05:00:20;101358.31;;;13.73;100.00
51781;BME280;37844;57.126;24.288;2022-10-16T05:02:45;101349.69;;;13.73;100.00
51781;BME280;37844;57.126;24.288;2022-10-16T05:05:11;101349.72;;;13.74;100.00
51781;BME280;37844;57.126;24.288;2022-10-16T05:07:37;101345.41;;;13.75;100.00
51781;BME280;37844;57.126;24.288;2022-10-16T05:10:02;101351.47;;;13.78;100.00
51781;BME280;37844;57.126;24.288;2022-10-16T05:12:28;101347.16;;;13.79;100.00
51781;BME280;37844;57.126;24.288;2022-10-16T05:14:54;101354.06;;;13.77;100.00
51781;BME280;37844;57.126;24.288;2022-10-16T05:17:26;101358.38;;;13.78;100.00
51781;BME280;37844;57.126;24.288;2022-10-16T05:19:51;101371.38;;;13.83;100.00
51781;BME280;37844;57.126;24.288;2022-10-16T05:22:17;101368.78;;;13.83;100.00
51781;BME280;37844;57.126;24.288;2022-10-16T05:24:56;101373.06;;;13.81;100.00
51781;BME280;37844;57.126;24.288;2022-10-16T05:27:22;101374.81;;;13.83;100.00
51781;BME280;37844;57.126;24.288;2022-10-16T05:29:48;101372.25;;;13.82;100.00
51781;BME280;37844;57.126;24.288;2022-10-16T05:32:15;101376.59;;;13.86;100.00
51781;BME280;37844;57.126;24.288;2022-10-16T05:34:41;101380.00;;;13.83;100.00
51781;BME280;37844;57.126;24.288;2022-10-16T05:37:06;101385.22;;;13.85;100.00
51781;BME280;37844;57.126;24.288;2022-10-16T05:39:32;101385.25;;;13.86;100.00
51781;BME280;37844;57.126;24.288;2022-10-16T05:41:58;101383.50;;;13.85;100.00
51781;BME280;37844;57.126;24.288;2022-10-16T05:44:23;101387.81;;;13.88;100.00
51781;BME280;37844;57.126;24.288;2022-10-16T05:46:48;101386.97;;;13.86;100.00
51781;BME280;37844;57.126;24.288;2022-10-16T05:49:14;101391.31;;;13.88;100.00
51781;BME280;37844;57.126;24.288;2022-10-16T05:51:39;101389.56;;;13.90;100.00
51781;BME280;37844;57.126;24.288;2022-10-16T05:54:06;101373.16;;;13.90;100.00
51781;BME280;37844;57.126;24.288;2022-10-16T05:56:31;101384.41;;;13.92;100.00
51781;BME280;37844;57.126;24.288;2022-10-16T05:58:57;101391.38;;;13.93;100.00
51781;BME280;37844;57.126;24.288;2022-10-16T06:01:22;101402.59;;;13.93;100.00
51781;BME280;37844;57.126;24.288;2022-10-16T06:03:50;101400.88;;;13.94;100.00
51781;BME280;37844;57.126;24.288;2022-10-16T06:06:18;101401.72;;;13.94;100.00
51781;BME280;37844;57.126;24.288;2022-10-16T06:08:45;101405.22;;;13.98;100.00
51781;BME280;37844;57.126;24.288;2022-10-16T06:11:16;101413.88;;;13.98;100.00
51781;BME280;37844;57.126;24.288;2022-10-16T06:13:41;101419.06;;;14.02;100.00
51781;BME280;37844;57.126;24.288;2022-10-16T06:16:09;101425.16;;;14.05;100.00
51781;BME280;37844;57.126;24.288;2022-10-16T06:18:34;101419.13;;;14.06;100.00
51781;BME280;37844;57.126;24.288;2022-10-16T06:21:07;101409.66;;;14.10;100.00
51781;BME280;37844;57.126;24.288;2022-10-16T06:23:33;101412.22;;;14.08;100.00
51781;BME280;37844;57.126;24.288;2022-10-16T06:26:11;101417.44;;;14.10;100.00
51781;BME280;37844;57.126;24.288;2022-10-16T06:28:37;101405.38;;;14.12;100.00
51781;BME280;37844;57.126;24.288;2022-10-16T06:31:04;101403.63;;;14.12;100.00
51781;BME280;37844;57.126;24.288;2022-10-16T06:33:30;101405.38;;;14.12;100.00
51781;BME280;37844;57.126;24.288;2022-10-16T06:36:04;101406.25;;;14.15;100.00
51781;BME280;37844;57.126;24.288;2022-10-16T06:38:31;101411.41;;;14.14;100.00
51781;BME280;37844;57.126;24.288;2022-10-16T06:40:57;101418.34;;;14.16;100.00
51781;BME280;37844;57.126;24.288;2022-10-16T06:43:23;101416.63;;;14.18;100.00
51781;BME280;37844;57.126;24.288;2022-10-16T06:45:53;101426.22;;;14.27;100.00
51781;BME280;37844;57.126;24.288;2022-10-16T06:48:19;101435.72;;;14.25;100.00
51781;BME280;37844;57.126;24.288;2022-10-16T06:50:44;101444.41;;;14.29;100.00
51781;BME280;37844;57.126;24.288;2022-10-16T06:53:19;101436.63;;;14.29;100.00
51781;BME280;37844;57.126;24.288;2022-10-16T06:55:45;101430.53;;;14.28;100.00
51781;BME280;37844;57.126;24.288;2022-10-16T06:58:10;101434.91;;;14.32;100.00
51781;BME280;37844;57.126;24.288;2022-10-16T07:00:35;101434.94;;;14.34;100.00
51781;BME280;37844;57.126;24.288;2022-10-16T07:03:01;101433.25;;;14.39;100.00
51781;BME280;37844;57.126;24.288;2022-10-16T07:05:26;101438.44;;;14.39;100.00
51781;BME280;37844;57.126;24.288;2022-10-16T07:07:52;101435.81;;;14.36;100.00
51781;BME280;37844;57.126;24.288;2022-10-16T07:10:17;101426.34;;;14.38;100.00
51781;BME280;37844;57.126;24.288;2022-10-16T07:12:42;101438.41;;;14.37;100.00
51781;BME280;37844;57.126;24.288;2022-10-16T07:15:10;101439.25;;;14.35;100.00
51781;BME280;37844;57.126;24.288;2022-10-16T07:17:35;101440.97;;;14.31;100.00
51781;BME280;37844;57.126;24.288;2022-10-16T07:20:01;101445.28;;;14.32;100.00
51781;BME280;37844;57.126;24.288;2022-10-16T07:22:28;101440.09;;;14.31;100.00
51781;BME280;37844;57.126;24.288;2022-10-16T07:24:53;101443.53;;;14.30;100.00
51781;BME280;37844;57.126;24.288;2022-10-16T07:27:19;101447.88;;;14.32;100.00
51781;BME280;37844;57.126;24.288;2022-10-16T07:29:47;101440.09;;;14.32;100.00
51781;BME280;37844;57.126;24.288;2022-10-16T07:32:12;101447.03;;;14.33;100.00
51781;BME280;37844;57.126;24.288;2022-10-16T07:34:38;101448.75;;;14.31;100.00
51781;BME280;37844;57.126;24.288;2022-10-16T07:37:03;101447.91;;;14.34;100.00
51781;BME280;37844;57.126;24.288;2022-10-16T07:39:29;101450.50;;;14.35;100.00
51781;BME280;37844;57.126;24.288;2022-10-16T07:41:54;101453.06;;;14.35;100.00
51781;BME280;37844;57.126;24.288;2022-10-16T07:44:20;101454.78;;;14.32;100.00
51781;BME280;37844;57.126;24.288;2022-10-16T07:46:45;101450.50;;;14.34;100.00
51781;BME280;37844;57.126;24.288;2022-10-16T07:49:11;101443.56;;;14.34;100.00
51781;BME280;37844;57.126;24.288;2022-10-16T07:51:36;101444.47;;;14.36;100.00
51781;BME280;37844;57.126;24.288;2022-10-16T07:54:03;101440.97;;;14.31;100.00
51781;BME280;37844;57.126;24.288;2022-10-16T07:56:30;101437.53;;;14.37;100.00
51781;BME280;37844;57.126;24.288;2022-10-16T07:58:56;101437.53;;;14.34;100.00
51781;BME280;37844;57.126;24.288;2022-10-16T08:01:21;101435.81;;;14.36;100.00
51781;BME280;37844;57.126;24.288;2022-10-16T08:03:49;101460.94;;;14.41;100.00
51781;BME280;37844;57.126;24.288;2022-10-16T08:06:16;101448.75;;;14.34;100.00
51781;BME280;37844;57.126;24.288;2022-10-16T08:08:41;101440.16;;;14.40;100.00
51781;BME280;37844;57.126;24.288;2022-10-16T08:11:07;101447.09;;;14.41;100.00
51781;BME280;37844;57.126;24.288;2022-10-16T08:13:33;101445.41;;;14.46;100.00
51781;BME280;37844;57.126;24.288;2022-10-16T08:15:58;101447.19;;;14.53;100.00
51781;BME280;37844;57.126;24.288;2022-10-16T08:18:24;101448.97;;;14.56;100.00
51781;BME280;37844;57.126;24.288;2022-10-16T08:20:58;101442.97;;;14.63;100.00
51781;BME280;37844;57.126;24.288;2022-10-16T08:23:25;101437.81;;;14.68;100.00
51781;BME280;37844;57.126;24.288;2022-10-16T08:25:52;101438.72;;;14.74;100.00
51781;BME280;37844;57.126;24.288;2022-10-16T08:28:18;101443.94;;;14.77;100.00
51781;BME280;37844;57.126;24.288;2022-10-16T08:30:44;101431.84;;;14.76;100.00
51781;BME280;37844;57.126;24.288;2022-10-16T08:33:10;101428.34;;;14.74;100.00
51781;BME280;37844;57.126;24.288;2022-10-16T08:35:35;101427.50;;;14.77;100.00
51781;BME280;37844;57.126;24.288;2022-10-16T08:38:03;101418.00;;;14.82;100.00
51781;BME280;37844;57.126;24.288;2022-10-16T08:40:30;101412.84;;;14.83;100.00
51781;BME280;37844;57.126;24.288;2022-10-16T08:43:26;101410.25;;;14.83;100.00
51781;BME280;37844;57.126;24.288;2022-10-16T08:49:05;101399.03;;;14.89;100.00
51781;BME280;37844;57.126;24.288;2022-10-16T08:51:35;101412.00;;;14.89;100.00
51781;BME280;37844;57.126;24.288;2022-10-16T08:54:21;101399.94;;;14.93;100.00
51781;BME280;37844;57.126;24.288;2022-10-16T08:56:48;101398.16;;;14.89;100.00
51781;BME280;37844;57.126;24.288;2022-10-16T08:59:15;101406.84;;;14.95;100.00
51781;BME280;37844;57.126;24.288;2022-10-16T09:01:44;101412.88;;;14.91;100.00
51781;BME280;37844;57.126;24.288;2022-10-16T09:07:05;101426.72;;;14.90;100.00
51781;BME280;37844;57.126;24.288;2022-10-16T09:12:36;101414.63;;;14.91;100.00
51781;BME280;37844;57.126;24.288;2022-10-16T09:15:32;101421.50;;;14.87;100.00
51781;BME280;37844;57.126;24.288;2022-10-16T09:18:07;101430.16;;;14.86;100.00
51781;BME280;37844;57.126;24.288;2022-10-16T09:20:56;101429.28;;;14.84;100.00
51781;BME280;37844;57.126;24.288;2022-10-16T09:23:28;101423.22;;;14.83;100.00
51781;BME280;37844;57.126;24.288;2022-10-16T09:25:54;101422.34;;;14.81;100.00
51781;BME280;37844;57.126;24.288;2022-10-16T09:28:20;101427.56;;;14.86;100.00
51781;BME280;37844;57.126;24.288;2022-10-16T09:30:47;101418.91;;;14.86;100.00
51781;BME280;37844;57.126;24.288;2022-10-16T09:33:15;101427.56;;;14.89;100.00
51781;BME280;37844;57.126;24.288;2022-10-16T09:35:47;101422.38;;;14.89;100.00
51781;BME280;37844;57.126;24.288;2022-10-16T09:38:32;101424.13;;;14.92;100.00
51781;BME280;37844;57.126;24.288;2022-10-16T09:41:00;101419.78;;;14.92;100.00
51781;BME280;37844;57.126;24.288;2022-10-16T09:43:41;101418.94;;;14.95;100.00
51781;BME280;37844;57.126;24.288;2022-10-16T09:46:31;101423.28;;;14.96;100.00
51781;BME280;37844;57.126;24.288;2022-10-16T09:49:02;101416.41;;;15.01;100.00
51781;BME280;37844;57.126;24.288;2022-10-16T09:51:33;101409.47;;;15.00;100.00
51781;BME280;37844;57.126;24.288;2022-10-16T09:56:36;101407.75;;;15.03;100.00
51781;BME280;37844;57.126;24.288;2022-10-16T09:59:18;101400.81;;;15.04;100.00
51781;BME280;37844;57.126;24.288;2022-10-16T10:01:52;101413.84;;;15.09;100.00
51781;BME280;37844;57.126;24.288;2022-10-16T10:04:23;101412.94;;;15.03;100.00
51781;BME280;37844;57.126;24.288;2022-10-16T10:06:51;101404.34;;;15.14;100.00
51781;BME280;37844;57.126;24.288;2022-10-16T10:09:37;101409.53;;;15.11;100.00
51781;BME280;37844;57.126;24.288;2022-10-16T10:12:05;101406.06;;;15.10;100.00
51781;BME280;37844;57.126;24.288;2022-10-16T10:14:38;101412.97;;;15.11;100.00
51781;BME280;37844;57.126;24.288;2022-10-16T10:22:26;101422.50;;;15.14;100.00
51781;BME280;37844;57.126;24.288;2022-10-16T10:24:55;101413.00;;;15.13;100.00
51781;BME280;37844;57.126;24.288;2022-10-16T10:27:26;101416.44;;;15.13;100.00
51781;BME280;37844;57.126;24.288;2022-10-16T10:32:42;101419.94;;;15.15;100.00
51781;BME280;37844;57.126;24.288;2022-10-16T10:35:25;101416.50;;;15.16;100.00
51781;BME280;37844;57.126;24.288;2022-10-16T10:41:39;101419.94;;;15.20;100.00
51781;BME280;37844;57.126;24.288;2022-10-16T10:46:26;101424.25;;;15.15;100.00
51781;BME280;37844;57.126;24.288;2022-10-16T10:55:40;101419.06;;;15.18;100.00
51781;BME280;37844;57.126;24.288;2022-10-16T10:58:19;101401.75;;;15.15;100.00
51781;BME280;37844;57.126;24.288;2022-10-16T11:06:33;101405.28;;;15.23;100.00
51781;BME280;37844;57.126;24.288;2022-10-16T11:11:45;101384.50;;;15.31;100.00
51781;BME280;37844;57.126;24.288;2022-10-16T11:14:17;101393.19;;;15.39;100.00
51781;BME280;37844;57.126;24.288;2022-10-16T11:19:28;101382.81;;;15.38;100.00
51781;BME280;37844;57.126;24.288;2022-10-16T11:22:13;101384.50;;;15.37;100.00
51781;BME280;37844;57.126;24.288;2022-10-16T11:24:53;101393.19;;;15.38;100.00
51781;BME280;37844;57.126;24.288;2022-10-16T11:27:26;101390.59;;;15.38;100.00
51781;BME280;37844;57.126;24.288;2022-10-16T11:30:04;101400.13;;;15.43;100.00
51781;BME280;37844;57.126;24.288;2022-10-16T11:32:36;101400.09;;;15.37;100.00
51781;BME280;37844;57.126;24.288;2022-10-16T11:35:19;101406.19;;;15.38;100.00
51781;BME280;37844;57.126;24.288;2022-10-16T11:37:49;101394.88;;;15.33;100.00
51781;BME280;37844;57.126;24.288;2022-10-16T11:40:28;101400.97;;;15.35;100.00
51781;BME280;37844;57.126;24.288;2022-10-16T11:43:03;101403.56;;;15.36;100.00
51781;BME280;37844;57.126;24.288;2022-10-16T11:45:42;101410.47;;;15.30;100.00
51781;BME280;37844;57.126;24.288;2022-10-16T11:56:18;101406.16;;;15.29;100.00
51781;BME280;37844;57.126;24.288;2022-10-16T11:58:49;101407.88;;;15.31;100.00
51781;BME280;37844;57.126;24.288;2022-10-16T12:01:26;101402.69;;;15.34;100.00
51781;BME280;37844;57.126;24.288;2022-10-16T12:04:11;101401.84;;;15.35;100.00
51781;BME280;37844;57.126;24.288;2022-10-16T12:06:44;101403.56;;;15.33;100.00
51781;BME280;37844;57.126;24.288;2022-10-16T12:09:27;101409.59;;;15.27;100.00
51781;BME280;37844;57.126;24.288;2022-10-16T12:11:53;101405.28;;;15.28;100.00
51781;BME280;37844;57.126;24.288;2022-10-16T12:16:58;101404.44;;;15.34;100.00
51781;BME280;37844;57.126;24.288;2022-10-16T12:19:30;101392.31;;;15.34;100.00
51781;BME280;37844;57.126;24.288;2022-10-16T12:22:01;101398.41;;;15.38;100.00
51781;BME280;37844;57.126;24.288;2022-10-16T12:24:34;101385.38;;;15.36;100.00
51781;BME280;37844;57.126;24.288;2022-10-16T12:27:01;101390.59;;;15.38;100.00
51781;BME280;37844;57.126;24.288;2022-10-16T12:29:41;101391.47;;;15.38;100.00
51781;BME280;37844;57.126;24.288;2022-10-16T12:34:54;101395.75;;;15.32;100.00
51781;BME280;37844;57.126;24.288;2022-10-16T12:37:24;101391.44;;;15.26;100.00
51781;BME280;37844;57.126;24.288;2022-10-16T12:39:51;101399.19;;;15.27;100.00
51781;BME280;37844;57.126;24.288;2022-10-16T12:44:54;101394.03;;;15.26;100.00
51781;BME280;37844;57.126;24.288;2022-10-16T12:49:55;101390.53;;;15.25;100.00
51781;BME280;37844;57.126;24.288;2022-10-16T12:52:34;101392.25;;;15.22;100.00
51781;BME280;37844;57.126;24.288;2022-10-16T12:55:00;101388.81;;;15.27;100.00
51781;BME280;37844;57.126;24.288;2022-10-16T12:57:54;101387.94;;;15.25;100.00
51781;BME280;37844;57.126;24.288;2022-10-16T13:05:52;101387.09;;;15.30;100.00
51781;BME280;37844;57.126;24.288;2022-10-16T13:27:02;101370.63;;;15.24;100.00
51781;BME280;37844;57.126;24.288;2022-10-16T13:29:32;101361.13;;;15.28;100.00
51781;BME280;37844;57.126;24.288;2022-10-16T13:32:00;101361.13;;;15.28;100.00
51781;BME280;37844;57.126;24.288;2022-10-16T13:34:27;101364.59;;;15.29;100.00
51781;BME280;37844;57.126;24.288;2022-10-16T13:36:53;101368.06;;;15.31;100.00
51781;BME280;37844;57.126;24.288;2022-10-16T13:39:27;101359.41;;;15.29;100.00
51781;BME280;37844;57.126;24.288;2022-10-16T13:42:10;101349.88;;;15.32;100.00
51781;BME280;37844;57.126;24.288;2022-10-16T13:44:49;101351.63;;;15.33;100.00
51781;BME280;37844;57.126;24.288;2022-10-16T13:49:41;101374.16;;;15.40;100.00
51781;BME280;37844;57.126;24.288;2022-10-16T13:52:17;101383.66;;;15.40;100.00
51781;BME280;37844;57.126;24.288;2022-10-16T13:54:43;101358.53;;;15.37;100.00
51781;BME280;37844;57.126;24.288;2022-10-16T13:57:13;101365.47;;;15.34;100.00
51781;BME280;37844;57.126;24.288;2022-10-16T13:59:39;101366.31;;;15.34;100.00
51781;BME280;37844;57.126;24.288;2022-10-16T14:02:31;101358.53;;;15.31;100.00
51781;BME280;37844;57.126;24.288;2022-10-16T14:05:02;101359.41;;;15.35;100.00
51781;BME280;37844;57.126;24.288;2022-10-16T14:07:31;101352.47;;;15.31;100.00
51781;BME280;37844;57.126;24.288;2022-10-16T14:10:02;101370.66;;;15.29;100.00
51781;BME280;37844;57.126;24.288;2022-10-16T14:12:28;101388.84;;;15.34;100.00
51781;BME280;37844;57.126;24.288;2022-10-16T14:14:54;101374.97;;;15.32;100.00
51781;BME280;37844;57.126;24.288;2022-10-16T14:19:51;101371.53;;;15.34;100.00
51781;BME280;37844;57.126;24.288;2022-10-16T14:22:33;101369.81;;;15.38;100.00